»·PEaware :: N162PT KSNA-KBUR

N162PT :: KSNA-KBUR

FLIGHT INFORMATION

Flight Status: Arrived
Operator: Privately registered:
United States
More flights under this callsign
Pilot: Anonymous 16342 (16342)
Aircraft: CESSNA 172 SKYHAWK
(C172)
More flights by this aircraft type
Origin: KSNA John Wayne-Orange Co
United States
Destination: KBUR Bob Hope-Burbank
United States
More flights between these airports :: More routes between these airports
Route: +SLI V23 POPPR SMO SMO0311R SILEX
File this flight plan on PilotEdge
Remarks: I-3 attempt
Altitude:
(Current/Filed)
4,000ft
Speed:
(Current/Filed)
110kts
Departed: 09-Jun-18 10:14 AM
Arrived: 09-Jun-18 10:54 AM
Distance/Time
Traveled:
40nm/0:40
Distance/Time
To Go:
Arrived

Flight Plot

Page will automatically refresh every two minutes.

Flight plan parsing failed; only flown route is shown


Map Options




Map Legend


Flown Route
Filed Route
Departure Airport
Arrival Airport
Navaid (VOR, NDB)
Fix

Horizontal Profiles

Position Reports

Time Latitude Longitude Heading Altitude Ground
Speed
09-Jun-18 09:58 33.667170 -117.872136 225 60ft 0kts
09-Jun-18 09:59 33.667170 -117.872136 225 60ft 0kts
09-Jun-18 10:00 33.667170 -117.872136 225 60ft 0kts
09-Jun-18 10:01 33.667170 -117.872136 225 60ft 0kts
09-Jun-18 10:02 33.667170 -117.872136 225 60ft 0kts
09-Jun-18 10:03 33.667170 -117.872136 225 60ft 0kts
09-Jun-18 10:04 33.667170 -117.872136 225 60ft 0kts
09-Jun-18 10:05 33.667062 -117.872801 294 60ft 10kts
09-Jun-18 10:06 33.671366 -117.868662 34 60ft 24kts
09-Jun-18 10:07 33.675033 -117.866521 26 60ft 18kts
09-Jun-18 10:08 33.679622 -117.863574 27 60ft 14kts
09-Jun-18 10:09 33.680004 -117.863743 271 60ft 0kts
09-Jun-18 10:10 33.680004 -117.863743 271 60ft 0kts
09-Jun-18 10:11 33.680004 -117.863743 271 60ft 0kts
09-Jun-18 10:12 33.680004 -117.863743 271 60ft 0kts
09-Jun-18 10:13 33.680004 -117.863743 271 60ft 0kts
09-Jun-18 10:14 33.671651 -117.870902 228 294ft 74kts
09-Jun-18 10:15 33.659443 -117.890138 230 1086ft 72kts
09-Jun-18 10:16 33.651165 -117.910303 288 1880ft 71kts
09-Jun-18 10:17 33.657997 -117.932140 290 2624ft 70kts
09-Jun-18 10:18 33.664900 -117.953486 290 3287ft 74kts
09-Jun-18 10:19 33.673050 -117.977288 291 3887ft 79kts
09-Jun-18 10:20 33.683616 -118.006588 291 4000ft 106kts
09-Jun-18 10:21 33.695384 -118.037594 291 3999ft 104kts
09-Jun-18 10:22 33.707743 -118.068587 291 4000ft 105kts
09-Jun-18 10:23 33.720571 -118.099776 292 4000ft 105kts
09-Jun-18 10:24 33.732947 -118.130886 292 3999ft 104kts
09-Jun-18 10:25 33.744822 -118.162183 292 3999ft 103kts
09-Jun-18 10:26 33.756249 -118.193841 292 3990ft 104kts
09-Jun-18 10:27 33.773462 -118.220378 321 3990ft 107kts
09-Jun-18 10:28 33.797720 -118.243901 320 3989ft 116kts
09-Jun-18 10:29 33.822368 -118.268457 320 3989ft 116kts
09-Jun-18 10:30 33.847241 -118.293312 320 3989ft 117kts
09-Jun-18 10:31 33.872185 -118.318268 320 3990ft 118kts
09-Jun-18 10:32 33.897176 -118.343295 320 3990ft 118kts
09-Jun-18 10:33 33.922145 -118.368316 320 3990ft 118kts
09-Jun-18 10:34 33.947095 -118.393372 321 3990ft 118kts
09-Jun-18 10:35 33.972031 -118.418676 321 3990ft 118kts
09-Jun-18 10:36 33.996856 -118.444047 321 3990ft 118kts
09-Jun-18 10:37 34.021792 -118.469616 321 3990ft 118kts
09-Jun-18 10:38 34.050556 -118.480271 342 3988ft 103kts
09-Jun-18 10:39 34.069968 -118.504397 312 3990ft 102kts
09-Jun-18 10:40 34.088244 -118.530351 312 3990ft 101kts
09-Jun-18 10:41 34.105780 -118.554929 312 3991ft 101kts
09-Jun-18 10:42 34.124174 -118.580432 312 3991ft 101kts
09-Jun-18 10:43 34.142402 -118.605558 312 3992ft 100kts
09-Jun-18 10:44 34.160516 -118.630280 312 3993ft 100kts
09-Jun-18 10:45 34.181164 -118.623457 61 3997ft 105kts
09-Jun-18 10:46 34.193790 -118.592094 61 4000ft 105kts
09-Jun-18 10:47 34.201029 -118.557079 94 3573ft 131kts
09-Jun-18 10:48 34.199570 -118.513349 90 3017ft 127kts
09-Jun-18 10:49 34.199121 -118.475086 89 2500ft 104kts
09-Jun-18 10:50 34.198780 -118.444018 90 2002ft 86kts
09-Jun-18 10:51 34.198492 -118.418304 89 1578ft 71kts
09-Jun-18 10:52 34.198244 -118.396034 89 1223ft 63kts
09-Jun-18 10:53 34.197974 -118.374439 90 881ft 66kts
09-Jun-18 10:54 34.197691 -118.358494 65 738ft 5kts
09-Jun-18 10:55 34.197018 -118.357981 169 738ft 0kts
09-Jun-18 10:56 34.196818 -118.360589 265 738ft 23kts

Navigation Log

Ident Type
Flight plan parsing failed, navigation log unavailable